sensor_id;sensor_type;location;lat;lon;timestamp;P1;durP1;ratioP1;P2;durP2;ratioP2
59024;SDS011;44806;48.008;13.666;2024-03-02T00:00:50;44.90;;;19.85;;
59024;SDS011;44806;48.008;13.666;2024-03-02T00:03:18;42.17;;;19.08;;
59024;SDS011;44806;48.008;13.666;2024-03-02T00:05:48;46.10;;;19.38;;
59024;SDS011;44806;48.008;13.666;2024-03-02T00:08:18;33.08;;;13.77;;
59024;SDS011;44806;48.008;13.666;2024-03-02T00:10:49;39.13;;;16.38;;
59024;SDS011;44806;48.008;13.666;2024-03-02T00:13:16;44.05;;;17.17;;
59024;SDS011;44806;48.008;13.666;2024-03-02T00:15:51;42.90;;;17.65;;
59024;SDS011;44806;48.008;13.666;2024-03-02T00:18:19;52.60;;;19.58;;
59024;SDS011;44806;48.008;13.666;2024-03-02T00:20:47;42.50;;;17.65;;
59024;SDS011;44806;48.008;13.666;2024-03-02T00:23:15;42.88;;;17.00;;
59024;SDS011;44806;48.008;13.666;2024-03-02T00:25:45;40.60;;;17.10;;
59024;SDS011;44806;48.008;13.666;2024-03-02T00:28:16;48.72;;;20.50;;
59024;SDS011;44806;48.008;13.666;2024-03-02T00:30:56;53.45;;;21.48;;
59024;SDS011;44806;48.008;13.666;2024-03-02T00:33:26;52.17;;;20.25;;
59024;SDS011;44806;48.008;13.666;2024-03-02T00:35:54;49.20;;;19.60;;
59024;SDS011;44806;48.008;13.666;2024-03-02T00:38:22;52.42;;;21.42;;
59024;SDS011;44806;48.008;13.666;2024-03-02T00:40:49;46.53;;;18.27;;
59024;SDS011;44806;48.008;13.666;2024-03-02T00:46:10;87.30;;;21.77;;
59024;SDS011;44806;48.008;13.666;2024-03-02T00:48:38;58.65;;;18.73;;
59024;SDS011;44806;48.008;13.666;2024-03-02T00:51:10;43.15;;;15.18;;
59024;SDS011;44806;48.008;13.666;2024-03-02T00:53:37;57.97;;;19.50;;
59024;SDS011;44806;48.008;13.666;2024-03-02T00:56:05;49.85;;;21.05;;
59024;SDS011;44806;48.008;13.666;2024-03-02T00:58:36;77.95;;;20.65;;
59024;SDS011;44806;48.008;13.666;2024-03-02T01:01:03;43.88;;;16.20;;
59024;SDS011;44806;48.008;13.666;2024-03-02T01:03:32;44.15;;;15.90;;
59024;SDS011;44806;48.008;13.666;2024-03-02T01:05:59;57.08;;;20.25;;
59024;SDS011;44806;48.008;13.666;2024-03-02T01:08:26;55.85;;;18.27;;
59024;SDS011;44806;48.008;13.666;2024-03-02T01:10:53;103.25;;;21.35;;
59024;SDS011;44806;48.008;13.666;2024-03-02T01:13:21;150.60;;;20.98;;
59024;SDS011;44806;48.008;13.666;2024-03-02T01:15:48;74.70;;;17.65;;
59024;SDS011;44806;48.008;13.666;2024-03-02T01:18:15;62.97;;;21.00;;
59024;SDS011;44806;48.008;13.666;2024-03-02T01:20:44;98.70;;;23.10;;
59024;SDS011;44806;48.008;13.666;2024-03-02T01:23:11;150.20;;;21.80;;
59024;SDS011;44806;48.008;13.666;2024-03-02T01:25:38;88.78;;;18.73;;
59024;SDS011;44806;48.008;13.666;2024-03-02T01:28:05;52.25;;;16.42;;
59024;SDS011;44806;48.008;13.666;2024-03-02T01:30:32;65.68;;;18.88;;
59024;SDS011;44806;48.008;13.666;2024-03-02T01:33:00;48.72;;;17.15;;
59024;SDS011;44806;48.008;13.666;2024-03-02T01:35:27;107.93;;;21.63;;
59024;SDS011;44806;48.008;13.666;2024-03-02T01:37:55;114.43;;;21.50;;
59024;SDS011;44806;48.008;13.666;2024-03-02T01:40:22;82.22;;;19.98;;
59024;SDS011;44806;48.008;13.666;2024-03-02T01:42:51;46.63;;;19.80;;
59024;SDS011;44806;48.008;13.666;2024-03-02T01:45:19;64.88;;;18.05;;
59024;SDS011;44806;48.008;13.666;2024-03-02T01:47:46;68.45;;;16.25;;
59024;SDS011;44806;48.008;13.666;2024-03-02T01:50:13;78.53;;;19.30;;
59024;SDS011;44806;48.008;13.666;2024-03-02T01:52:41;51.67;;;18.40;;
59024;SDS011;44806;48.008;13.666;2024-03-02T01:55:10;85.40;;;19.58;;
59024;SDS011;44806;48.008;13.666;2024-03-02T01:57:37;47.95;;;18.30;;
59024;SDS011;44806;48.008;13.666;2024-03-02T02:00:05;89.82;;;20.00;;
59024;SDS011;44806;48.008;13.666;2024-03-02T02:02:35;91.03;;;19.27;;
59024;SDS011;44806;48.008;13.666;2024-03-02T02:05:02;67.47;;;17.23;;
59024;SDS011;44806;48.008;13.666;2024-03-02T02:07:29;59.63;;;17.35;;
59024;SDS011;44806;48.008;13.666;2024-03-02T02:09:56;90.75;;;20.55;;
59024;SDS011;44806;48.008;13.666;2024-03-02T02:12:25;48.97;;;18.50;;
59024;SDS011;44806;48.008;13.666;2024-03-02T02:14:52;42.05;;;16.60;;
59024;SDS011;44806;48.008;13.666;2024-03-02T02:17:19;42.00;;;16.42;;
59024;SDS011;44806;48.008;13.666;2024-03-02T02:19:46;82.45;;;18.25;;
59024;SDS011;44806;48.008;13.666;2024-03-02T02:22:14;38.80;;;16.95;;
59024;SDS011;44806;48.008;13.666;2024-03-02T02:24:41;43.33;;;16.88;;
59024;SDS011;44806;48.008;13.666;2024-03-02T02:27:08;40.80;;;15.80;;
59024;SDS011;44806;48.008;13.666;2024-03-02T02:29:36;44.75;;;17.38;;
59024;SDS011;44806;48.008;13.666;2024-03-02T02:32:03;40.53;;;16.08;;
59024;SDS011;44806;48.008;13.666;2024-03-02T02:34:30;41.83;;;18.80;;
59024;SDS011;44806;48.008;13.666;2024-03-02T02:36:57;57.00;;;18.88;;
59024;SDS011;44806;48.008;13.666;2024-03-02T02:39:26;57.08;;;18.30;;
59024;SDS011;44806;48.008;13.666;2024-03-02T02:41:53;28.88;;;12.20;;
59024;SDS011;44806;48.008;13.666;2024-03-02T02:44:20;31.08;;;12.45;;
59024;SDS011;44806;48.008;13.666;2024-03-02T02:46:47;72.90;;;15.63;;
59024;SDS011;44806;48.008;13.666;2024-03-02T02:49:14;32.25;;;14.00;;
59024;SDS011;44806;48.008;13.666;2024-03-02T02:51:41;66.68;;;14.18;;
59024;SDS011;44806;48.008;13.666;2024-03-02T02:54:11;57.97;;;15.23;;
59024;SDS011;44806;48.008;13.666;2024-03-02T02:56:39;48.35;;;17.48;;
59024;SDS011;44806;48.008;13.666;2024-03-02T02:59:06;67.55;;;20.30;;
59024;SDS011;44806;48.008;13.666;2024-03-02T03:01:33;72.07;;;18.50;;
59024;SDS011;44806;48.008;13.666;2024-03-02T03:04:00;56.33;;;18.83;;
59024;SDS011;44806;48.008;13.666;2024-03-02T03:06:27;59.28;;;17.90;;
59024;SDS011;44806;48.008;13.666;2024-03-02T03:08:54;68.88;;;18.40;;
59024;SDS011;44806;48.008;13.666;2024-03-02T03:11:21;45.72;;;16.50;;
59024;SDS011;44806;48.008;13.666;2024-03-02T03:13:51;60.70;;;13.57;;
59024;SDS011;44806;48.008;13.666;2024-03-02T03:16:19;68.30;;;15.07;;
59024;SDS011;44806;48.008;13.666;2024-03-02T03:18:46;62.95;;;15.98;;
59024;SDS011;44806;48.008;13.666;2024-03-02T03:21:15;78.43;;;17.55;;
59024;SDS011;44806;48.008;13.666;2024-03-02T03:23:42;75.93;;;20.35;;
59024;SDS011;44806;48.008;13.666;2024-03-02T03:26:09;73.15;;;16.60;;
59024;SDS011;44806;48.008;13.666;2024-03-02T03:28:36;46.95;;;17.33;;
59024;SDS011;44806;48.008;13.666;2024-03-02T03:31:05;34.25;;;14.05;;
59024;SDS011;44806;48.008;13.666;2024-03-02T03:33:32;59.75;;;17.75;;
59024;SDS011;44806;48.008;13.666;2024-03-02T03:35:59;40.10;;;15.75;;
59024;SDS011;44806;48.008;13.666;2024-03-02T03:38:28;64.63;;;17.58;;
59024;SDS011;44806;48.008;13.666;2024-03-02T03:40:55;121.38;;;21.30;;
59024;SDS011;44806;48.008;13.666;2024-03-02T03:43:22;87.10;;;16.63;;
59024;SDS011;44806;48.008;13.666;2024-03-02T03:45:49;136.18;;;18.98;;
59024;SDS011;44806;48.008;13.666;2024-03-02T03:48:18;41.05;;;15.40;;
59024;SDS011;44806;48.008;13.666;2024-03-02T03:50:45;181.30;;;19.10;;
59024;SDS011;44806;48.008;13.666;2024-03-02T03:53:12;59.50;;;18.15;;
59024;SDS011;44806;48.008;13.666;2024-03-02T03:55:39;40.92;;;15.38;;
59024;SDS011;44806;48.008;13.666;2024-03-02T03:58:07;64.70;;;17.20;;
59024;SDS011;44806;48.008;13.666;2024-03-02T04:00:34;81.90;;;19.58;;
59024;SDS011;44806;48.008;13.666;2024-03-02T04:03:01;39.95;;;16.98;;
59024;SDS011;44806;48.008;13.666;2024-03-02T04:05:30;51.40;;;17.90;;
59024;SDS011;44806;48.008;13.666;2024-03-02T04:07:57;78.95;;;17.70;;
59024;SDS011;44806;48.008;13.666;2024-03-02T04:10:25;94.70;;;18.75;;
59024;SDS011;44806;48.008;13.666;2024-03-02T04:12:52;84.90;;;17.35;;
59024;SDS011;44806;48.008;13.666;2024-03-02T04:15:19;99.35;;;16.10;;
59024;SDS011;44806;48.008;13.666;2024-03-02T04:17:48;72.40;;;18.85;;
59024;SDS011;44806;48.008;13.666;2024-03-02T04:20:15;38.25;;;15.40;;
59024;SDS011;44806;48.008;13.666;2024-03-02T04:22:43;135.95;;;21.10;;
59024;SDS011;44806;48.008;13.666;2024-03-02T04:25:10;55.88;;;18.83;;
59024;SDS011;44806;48.008;13.666;2024-03-02T04:27:37;71.90;;;15.30;;
59024;SDS011;44806;48.008;13.666;2024-03-02T04:30:05;94.10;;;18.77;;
59024;SDS011;44806;48.008;13.666;2024-03-02T04:32:33;48.92;;;17.42;;
59024;SDS011;44806;48.008;13.666;2024-03-02T04:35:01;74.00;;;20.95;;
59024;SDS011;44806;48.008;13.666;2024-03-02T04:37:29;62.63;;;18.02;;
59024;SDS011;44806;48.008;13.666;2024-03-02T04:39:57;48.72;;;15.20;;
59024;SDS011;44806;48.008;13.666;2024-03-02T04:42:24;60.13;;;20.15;;
59024;SDS011;44806;48.008;13.666;2024-03-02T04:44:51;54.22;;;20.63;;
59024;SDS011;44806;48.008;13.666;2024-03-02T04:47:18;49.10;;;19.83;;
59024;SDS011;44806;48.008;13.666;2024-03-02T04:49:45;49.88;;;19.92;;
59024;SDS011;44806;48.008;13.666;2024-03-02T04:52:12;50.28;;;19.60;;
59024;SDS011;44806;48.008;13.666;2024-03-02T04:54:39;48.30;;;17.60;;
59024;SDS011;44806;48.008;13.666;2024-03-02T04:57:21;33.50;;;13.80;;
59024;SDS011;44806;48.008;13.666;2024-03-02T04:59:48;54.20;;;20.75;;
59024;SDS011;44806;48.008;13.666;2024-03-02T05:02:15;40.33;;;16.70;;
59024;SDS011;44806;48.008;13.666;2024-03-02T05:04:42;48.83;;;17.05;;
59024;SDS011;44806;48.008;13.666;2024-03-02T05:07:09;40.42;;;17.40;;
59024;SDS011;44806;48.008;13.666;2024-03-02T05:09:36;36.53;;;14.73;;
59024;SDS011;44806;48.008;13.666;2024-03-02T05:12:03;38.97;;;16.17;;
59024;SDS011;44806;48.008;13.666;2024-03-02T05:14:43;41.65;;;17.15;;
59024;SDS011;44806;48.008;13.666;2024-03-02T05:17:11;40.47;;;14.80;;
59024;SDS011;44806;48.008;13.666;2024-03-02T05:19:39;42.47;;;16.17;;
59024;SDS011;44806;48.008;13.666;2024-03-02T05:22:06;46.95;;;19.08;;
59024;SDS011;44806;48.008;13.666;2024-03-02T05:24:33;48.67;;;17.42;;
59024;SDS011;44806;48.008;13.666;2024-03-02T05:27:00;50.90;;;18.85;;
59024;SDS011;44806;48.008;13.666;2024-03-02T05:29:27;40.20;;;17.23;;
59024;SDS011;44806;48.008;13.666;2024-03-02T05:31:55;42.45;;;18.25;;
59024;SDS011;44806;48.008;13.666;2024-03-02T05:34:22;51.00;;;18.55;;
59024;SDS011;44806;48.008;13.666;2024-03-02T05:36:49;50.22;;;20.80;;
59024;SDS011;44806;48.008;13.666;2024-03-02T05:39:16;74.55;;;20.27;;
59024;SDS011;44806;48.008;13.666;2024-03-02T05:41:43;50.15;;;17.98;;
59024;SDS011;44806;48.008;13.666;2024-03-02T05:44:10;46.60;;;18.77;;
59024;SDS011;44806;48.008;13.666;2024-03-02T05:46:37;54.30;;;18.77;;
59024;SDS011;44806;48.008;13.666;2024-03-02T05:49:06;39.75;;;14.88;;
59024;SDS011;44806;48.008;13.666;2024-03-02T05:51:34;46.97;;;16.20;;
59024;SDS011;44806;48.008;13.666;2024-03-02T05:54:01;72.72;;;21.33;;
59024;SDS011;44806;48.008;13.666;2024-03-02T05:56:29;50.33;;;18.85;;
59024;SDS011;44806;48.008;13.666;2024-03-02T05:58:56;52.97;;;19.20;;
59024;SDS011;44806;48.008;13.666;2024-03-02T06:01:33;46.20;;;18.08;;
59024;SDS011;44806;48.008;13.666;2024-03-02T06:04:00;49.95;;;19.35;;
59024;SDS011;44806;48.008;13.666;2024-03-02T06:06:29;72.13;;;20.25;;
59024;SDS011;44806;48.008;13.666;2024-03-02T06:08:57;57.70;;;19.08;;
59024;SDS011;44806;48.008;13.666;2024-03-02T06:11:24;55.30;;;19.85;;
59024;SDS011;44806;48.008;13.666;2024-03-02T06:13:51;58.00;;;20.60;;
59024;SDS011;44806;48.008;13.666;2024-03-02T06:16:18;53.65;;;18.95;;
59024;SDS011;44806;48.008;13.666;2024-03-02T06:18:45;75.43;;;19.42;;
59024;SDS011;44806;48.008;13.666;2024-03-02T06:21:12;62.40;;;19.98;;
59024;SDS011;44806;48.008;13.666;2024-03-02T06:23:41;53.95;;;19.70;;
59024;SDS011;44806;48.008;13.666;2024-03-02T06:26:08;53.05;;;17.42;;
59024;SDS011;44806;48.008;13.666;2024-03-02T06:28:35;71.85;;;16.50;;
59024;SDS011;44806;48.008;13.666;2024-03-02T06:31:02;35.90;;;15.40;;
59024;SDS011;44806;48.008;13.666;2024-03-02T06:33:29;59.65;;;19.00;;
59024;SDS011;44806;48.008;13.666;2024-03-02T06:35:56;78.28;;;21.30;;
59024;SDS011;44806;48.008;13.666;2024-03-02T06:38:23;57.60;;;18.98;;
59024;SDS011;44806;48.008;13.666;2024-03-02T06:40:52;42.78;;;16.10;;
59024;SDS011;44806;48.008;13.666;2024-03-02T06:43:20;51.72;;;19.35;;
59024;SDS011;44806;48.008;13.666;2024-03-02T06:45:48;62.38;;;19.95;;
59024;SDS011;44806;48.008;13.666;2024-03-02T06:48:15;42.83;;;16.80;;
59024;SDS011;44806;48.008;13.666;2024-03-02T06:50:45;35.83;;;14.35;;
59024;SDS011;44806;48.008;13.666;2024-03-02T06:53:13;45.13;;;16.05;;
59024;SDS011;44806;48.008;13.666;2024-03-02T06:55:42;55.70;;;18.48;;
59024;SDS011;44806;48.008;13.666;2024-03-02T06:58:12;30.48;;;13.48;;
59024;SDS011;44806;48.008;13.666;2024-03-02T07:00:40;43.40;;;16.58;;
59024;SDS011;44806;48.008;13.666;2024-03-02T07:03:07;46.75;;;17.73;;
59024;SDS011;44806;48.008;13.666;2024-03-02T07:05:34;58.47;;;20.52;;
59024;SDS011;44806;48.008;13.666;2024-03-02T07:08:01;50.72;;;19.50;;
59024;SDS011;44806;48.008;13.666;2024-03-02T07:10:30;56.58;;;22.85;;
59024;SDS011;44806;48.008;13.666;2024-03-02T07:12:57;56.60;;;20.35;;
59024;SDS011;44806;48.008;13.666;2024-03-02T07:15:25;55.25;;;19.27;;
59024;SDS011;44806;48.008;13.666;2024-03-02T07:18:15;55.50;;;22.40;;
59024;SDS011;44806;48.008;13.666;2024-03-02T07:20:42;61.55;;;23.90;;
59024;SDS011;44806;48.008;13.666;2024-03-02T07:23:09;55.35;;;19.95;;
59024;SDS011;44806;48.008;13.666;2024-03-02T07:25:36;49.92;;;19.70;;
59024;SDS011;44806;48.008;13.666;2024-03-02T07:28:04;50.17;;;20.08;;
59024;SDS011;44806;48.008;13.666;2024-03-02T07:30:33;58.70;;;20.42;;
59024;SDS011;44806;48.008;13.666;2024-03-02T07:33:00;60.22;;;21.83;;
59024;SDS011;44806;48.008;13.666;2024-03-02T07:35:27;65.88;;;22.17;;
59024;SDS011;44806;48.008;13.666;2024-03-02T07:37:56;50.45;;;19.50;;
59024;SDS011;44806;48.008;13.666;2024-03-02T07:40:24;51.85;;;20.05;;
59024;SDS011;44806;48.008;13.666;2024-03-02T07:42:51;64.03;;;24.88;;
59024;SDS011;44806;48.008;13.666;2024-03-02T07:45:18;64.43;;;22.20;;
59024;SDS011;44806;48.008;13.666;2024-03-02T07:47:47;53.45;;;20.67;;
59024;SDS011;44806;48.008;13.666;2024-03-02T07:50:15;52.08;;;19.67;;
59024;SDS011;44806;48.008;13.666;2024-03-02T07:52:42;48.80;;;18.17;;
59024;SDS011;44806;48.008;13.666;2024-03-02T07:55:09;43.20;;;17.42;;
59024;SDS011;44806;48.008;13.666;2024-03-02T07:57:36;55.13;;;20.70;;
59024;SDS011;44806;48.008;13.666;2024-03-02T08:00:07;55.20;;;20.02;;
59024;SDS011;44806;48.008;13.666;2024-03-02T08:02:35;57.58;;;20.02;;
59024;SDS011;44806;48.008;13.666;2024-03-02T08:05:03;55.95;;;21.33;;
59024;SDS011;44806;48.008;13.666;2024-03-02T08:07:30;52.20;;;21.20;;
59024;SDS011;44806;48.008;13.666;2024-03-02T08:09:57;55.72;;;22.00;;
59024;SDS011;44806;48.008;13.666;2024-03-02T08:12:24;51.47;;;19.65;;
59024;SDS011;44806;48.008;13.666;2024-03-02T08:14:51;51.45;;;19.15;;
59024;SDS011;44806;48.008;13.666;2024-03-02T08:17:18;44.58;;;18.27;;
59024;SDS011;44806;48.008;13.666;2024-03-02T08:19:45;56.42;;;21.50;;
59024;SDS011;44806;48.008;13.666;2024-03-02T08:22:14;57.63;;;23.40;;
59024;SDS011;44806;48.008;13.666;2024-03-02T08:24:41;47.15;;;19.27;;
59024;SDS011;44806;48.008;13.666;2024-03-02T08:27:09;38.60;;;16.50;;
59024;SDS011;44806;48.008;13.666;2024-03-02T08:29:37;50.63;;;20.77;;
59024;SDS011;44806;48.008;13.666;2024-03-02T08:32:04;44.53;;;17.88;;
59024;SDS011;44806;48.008;13.666;2024-03-02T08:34:32;57.70;;;21.13;;
59024;SDS011;44806;48.008;13.666;2024-03-02T08:37:00;42.75;;;16.45;;
59024;SDS011;44806;48.008;13.666;2024-03-02T08:39:29;44.25;;;18.20;;
59024;SDS011;44806;48.008;13.666;2024-03-02T08:41:56;50.67;;;18.92;;
59024;SDS011;44806;48.008;13.666;2024-03-02T08:44:23;43.78;;;17.75;;
59024;SDS011;44806;48.008;13.666;2024-03-02T08:46:50;46.08;;;18.30;;
59024;SDS011;44806;48.008;13.666;2024-03-02T08:49:17;46.67;;;19.15;;
59024;SDS011;44806;48.008;13.666;2024-03-02T08:51:44;46.10;;;20.60;;
59024;SDS011;44806;48.008;13.666;2024-03-02T08:54:19;46.90;;;18.85;;
59024;SDS011;44806;48.008;13.666;2024-03-02T08:56:47;42.35;;;17.90;;
59024;SDS011;44806;48.008;13.666;2024-03-02T08:59:15;43.47;;;17.92;;
59024;SDS011;44806;48.008;13.666;2024-03-02T09:01:42;49.10;;;21.05;;
59024;SDS011;44806;48.008;13.666;2024-03-02T09:04:10;45.88;;;18.42;;
59024;SDS011;44806;48.008;13.666;2024-03-02T09:06:37;53.40;;;21.40;;
59024;SDS011;44806;48.008;13.666;2024-03-02T09:09:04;51.60;;;21.10;;
59024;SDS011;44806;48.008;13.666;2024-03-02T09:11:31;44.65;;;17.80;;
59024;SDS011;44806;48.008;13.666;2024-03-02T09:14:00;46.95;;;19.85;;
59024;SDS011;44806;48.008;13.666;2024-03-02T09:16:27;49.78;;;19.70;;
59024;SDS011;44806;48.008;13.666;2024-03-02T09:18:55;42.00;;;17.67;;
59024;SDS011;44806;48.008;13.666;2024-03-02T09:21:22;37.03;;;16.10;;
59024;SDS011;44806;48.008;13.666;2024-03-02T09:23:50;38.22;;;18.00;;
59024;SDS011;44806;48.008;13.666;2024-03-02T09:26:17;35.20;;;15.70;;
59024;SDS011;44806;48.008;13.666;2024-03-02T09:28:45;35.53;;;14.90;;
59024;SDS011;44806;48.008;13.666;2024-03-02T09:31:15;31.30;;;13.43;;
59024;SDS011;44806;48.008;13.666;2024-03-02T09:33:43;32.42;;;12.88;;
59024;SDS011;44806;48.008;13.666;2024-03-02T09:36:16;35.95;;;13.35;;
59024;SDS011;44806;48.008;13.666;2024-03-02T09:38:44;42.17;;;17.80;;
59024;SDS011;44806;48.008;13.666;2024-03-02T09:41:11;38.75;;;15.75;;
59024;SDS011;44806;48.008;13.666;2024-03-02T09:43:38;32.00;;;14.77;;
59024;SDS011;44806;48.008;13.666;2024-03-02T09:46:06;40.33;;;16.48;;
59024;SDS011;44806;48.008;13.666;2024-03-02T09:48:36;36.92;;;19.42;;
59024;SDS011;44806;48.008;13.666;2024-03-02T09:51:04;37.15;;;15.38;;
59024;SDS011;44806;48.008;13.666;2024-03-02T09:53:32;31.20;;;13.05;;
59024;SDS011;44806;48.008;13.666;2024-03-02T09:56:00;40.47;;;16.02;;
59024;SDS011;44806;48.008;13.666;2024-03-02T09:58:27;33.58;;;16.25;;
59024;SDS011;44806;48.008;13.666;2024-03-02T10:00:54;32.42;;;14.50;;
59024;SDS011;44806;48.008;13.666;2024-03-02T10:03:22;36.92;;;15.20;;
59024;SDS011;44806;48.008;13.666;2024-03-02T10:05:52;38.40;;;16.58;;
59024;SDS011;44806;48.008;13.666;2024-03-02T10:08:18;34.58;;;15.70;;
59024;SDS011;44806;48.008;13.666;2024-03-02T10:10:45;36.28;;;15.43;;
59024;SDS011;44806;48.008;13.666;2024-03-02T10:13:13;34.17;;;15.60;;
59024;SDS011;44806;48.008;13.666;2024-03-02T10:15:41;35.10;;;14.68;;
59024;SDS011;44806;48.008;13.666;2024-03-02T10:18:09;33.63;;;14.75;;
59024;SDS011;44806;48.008;13.666;2024-03-02T10:20:37;31.40;;;14.80;;
59024;SDS011;44806;48.008;13.666;2024-03-02T10:23:12;34.88;;;14.57;;
59024;SDS011;44806;48.008;13.666;2024-03-02T10:25:41;36.05;;;13.75;;
59024;SDS011;44806;48.008;13.666;2024-03-02T10:28:08;36.85;;;14.70;;
59024;SDS011;44806;48.008;13.666;2024-03-02T10:30:36;32.85;;;14.38;;
59024;SDS011;44806;48.008;13.666;2024-03-02T10:33:04;35.08;;;14.07;;
59024;SDS011;44806;48.008;13.666;2024-03-02T10:35:32;31.80;;;14.38;;
59024;SDS011;44806;48.008;13.666;2024-03-02T10:38:01;35.63;;;15.45;;
59024;SDS011;44806;48.008;13.666;2024-03-02T10:40:32;32.30;;;13.70;;
59024;SDS011;44806;48.008;13.666;2024-03-02T10:42:59;31.40;;;13.27;;
59024;SDS011;44806;48.008;13.666;2024-03-02T10:45:28;34.85;;;14.00;;
59024;SDS011;44806;48.008;13.666;2024-03-02T10:47:56;30.50;;;14.27;;
59024;SDS011;44806;48.008;13.666;2024-03-02T10:50:24;31.10;;;13.52;;
59024;SDS011;44806;48.008;13.666;2024-03-02T10:52:51;30.70;;;14.27;;
59024;SDS011;44806;48.008;13.666;2024-03-02T10:55:18;33.47;;;15.00;;
59024;SDS011;44806;48.008;13.666;2024-03-02T10:57:49;30.30;;;13.88;;
59024;SDS011;44806;48.008;13.666;2024-03-02T11:00:18;31.42;;;12.98;;
59024;SDS011;44806;48.008;13.666;2024-03-02T11:02:52;24.55;;;13.05;;
59024;SDS011;44806;48.008;13.666;2024-03-02T11:05:25;27.20;;;12.82;;
59024;SDS011;44806;48.008;13.666;2024-03-02T11:07:56;24.90;;;12.38;;
59024;SDS011;44806;48.008;13.666;2024-03-02T11:10:28;26.58;;;12.13;;
59024;SDS011;44806;48.008;13.666;2024-03-02T11:13:02;26.90;;;13.02;;
59024;SDS011;44806;48.008;13.666;2024-03-02T11:15:32;24.20;;;10.90;;
59024;SDS011;44806;48.008;13.666;2024-03-02T11:18:03;23.90;;;11.45;;
59024;SDS011;44806;48.008;13.666;2024-03-02T11:20:34;24.38;;;12.00;;
59024;SDS011;44806;48.008;13.666;2024-03-02T11:23:04;22.40;;;9.75;;
59024;SDS011;44806;48.008;13.666;2024-03-02T11:25:32;24.00;;;11.57;;
59024;SDS011;44806;48.008;13.666;2024-03-02T11:28:00;30.05;;;14.32;;
59024;SDS011;44806;48.008;13.666;2024-03-02T11:33:18;26.80;;;11.60;;
59024;SDS011;44806;48.008;13.666;2024-03-02T11:35:52;28.17;;;12.40;;
59024;SDS011;44806;48.008;13.666;2024-03-02T11:38:19;23.83;;;11.55;;
59024;SDS011;44806;48.008;13.666;2024-03-02T11:40:46;20.17;;;10.52;;
59024;SDS011;44806;48.008;13.666;2024-03-02T11:43:15;24.77;;;11.85;;
59024;SDS011;44806;48.008;13.666;2024-03-02T11:45:42;27.48;;;13.13;;
59024;SDS011;44806;48.008;13.666;2024-03-02T11:48:11;25.83;;;11.32;;
59024;SDS011;44806;48.008;13.666;2024-03-02T11:50:40;26.48;;;11.18;;
59024;SDS011;44806;48.008;13.666;2024-03-02T11:53:09;24.55;;;12.30;;
59024;SDS011;44806;48.008;13.666;2024-03-02T11:55:38;24.15;;;11.82;;
59024;SDS011;44806;48.008;13.666;2024-03-02T11:58:06;26.45;;;11.32;;
59024;SDS011;44806;48.008;13.666;2024-03-02T12:00:35;25.80;;;11.65;;
59024;SDS011;44806;48.008;13.666;2024-03-02T12:03:03;28.33;;;11.13;;
59024;SDS011;44806;48.008;13.666;2024-03-02T12:05:32;22.55;;;11.57;;
59024;SDS011;44806;48.008;13.666;2024-03-02T12:08:00;25.95;;;11.48;;
59024;SDS011;44806;48.008;13.666;2024-03-02T12:10:29;22.80;;;11.65;;
59024;SDS011;44806;48.008;13.666;2024-03-02T12:12:56;25.83;;;12.15;;
59024;SDS011;44806;48.008;13.666;2024-03-02T12:15:25;24.75;;;11.93;;
59024;SDS011;44806;48.008;13.666;2024-03-02T12:17:55;26.02;;;11.52;;
59024;SDS011;44806;48.008;13.666;2024-03-02T12:20:22;25.90;;;12.65;;
59024;SDS011;44806;48.008;13.666;2024-03-02T12:22:50;26.73;;;13.48;;
59024;SDS011;44806;48.008;13.666;2024-03-02T12:25:18;27.08;;;11.57;;
59024;SDS011;44806;48.008;13.666;2024-03-02T12:27:46;25.92;;;12.93;;
59024;SDS011;44806;48.008;13.666;2024-03-02T12:30:16;19.95;;;8.75;;
59024;SDS011;44806;48.008;13.666;2024-03-02T12:32:43;27.60;;;12.88;;
59024;SDS011;44806;48.008;13.666;2024-03-02T12:35:12;30.30;;;14.02;;
59024;SDS011;44806;48.008;13.666;2024-03-02T12:37:44;27.17;;;13.50;;
59024;SDS011;44806;48.008;13.666;2024-03-02T12:40:11;30.70;;;13.38;;
59024;SDS011;44806;48.008;13.666;2024-03-02T12:42:39;25.65;;;10.90;;
59024;SDS011;44806;48.008;13.666;2024-03-02T12:45:07;27.30;;;11.93;;
59024;SDS011;44806;48.008;13.666;2024-03-02T12:47:34;25.13;;;12.55;;
59024;SDS011;44806;48.008;13.666;2024-03-02T12:50:03;26.88;;;12.60;;
59024;SDS011;44806;48.008;13.666;2024-03-02T12:52:32;24.00;;;11.65;;
59024;SDS011;44806;48.008;13.666;2024-03-02T12:55:00;26.58;;;12.00;;
59024;SDS011;44806;48.008;13.666;2024-03-02T12:57:29;25.00;;;12.43;;
59024;SDS011;44806;48.008;13.666;2024-03-02T12:59:58;26.65;;;13.38;;
59024;SDS011;44806;48.008;13.666;2024-03-02T13:02:27;30.60;;;12.07;;
59024;SDS011;44806;48.008;13.666;2024-03-02T13:04:54;27.38;;;12.00;;
59024;SDS011;44806;48.008;13.666;2024-03-02T13:07:22;23.83;;;10.90;;
59024;SDS011;44806;48.008;13.666;2024-03-02T13:09:51;24.10;;;10.95;;
59024;SDS011;44806;48.008;13.666;2024-03-02T13:12:20;24.85;;;11.07;;
59024;SDS011;44806;48.008;13.666;2024-03-02T13:14:48;23.98;;;9.80;;
59024;SDS011;44806;48.008;13.666;2024-03-02T13:17:17;25.10;;;11.90;;
59024;SDS011;44806;48.008;13.666;2024-03-02T13:19:50;22.13;;;10.55;;
59024;SDS011;44806;48.008;13.666;2024-03-02T13:22:19;23.10;;;11.48;;
59024;SDS011;44806;48.008;13.666;2024-03-02T13:24:46;23.80;;;10.98;;
59024;SDS011;44806;48.008;13.666;2024-03-02T13:27:14;22.85;;;11.05;;
59024;SDS011;44806;48.008;13.666;2024-03-02T13:29:44;22.08;;;10.25;;
59024;SDS011;44806;48.008;13.666;2024-03-02T13:32:12;24.10;;;10.75;;
59024;SDS011;44806;48.008;13.666;2024-03-02T13:34:39;24.58;;;11.15;;
59024;SDS011;44806;48.008;13.666;2024-03-02T13:37:06;25.02;;;12.05;;
59024;SDS011;44806;48.008;13.666;2024-03-02T13:39:33;21.38;;;10.35;;
59024;SDS011;44806;48.008;13.666;2024-03-02T13:42:05;24.13;;;11.00;;
59024;SDS011;44806;48.008;13.666;2024-03-02T13:44:35;26.38;;;10.82;;
59024;SDS011;44806;48.008;13.666;2024-03-02T13:47:03;24.48;;;12.13;;
59024;SDS011;44806;48.008;13.666;2024-03-02T13:49:30;24.48;;;10.98;;
59024;SDS011;44806;48.008;13.666;2024-03-02T13:52:01;25.75;;;10.75;;
59024;SDS011;44806;48.008;13.666;2024-03-02T13:54:39;29.48;;;12.60;;
59024;SDS011;44806;48.008;13.666;2024-03-02T13:57:07;26.15;;;12.80;;
59024;SDS011;44806;48.008;13.666;2024-03-02T13:59:36;21.27;;;11.05;;
59024;SDS011;44806;48.008;13.666;2024-03-02T14:02:05;24.48;;;11.55;;
59024;SDS011;44806;48.008;13.666;2024-03-02T14:04:32;27.80;;;12.13;;
59024;SDS011;44806;48.008;13.666;2024-03-02T14:07:00;23.73;;;10.70;;
59024;SDS011;44806;48.008;13.666;2024-03-02T14:09:28;25.10;;;11.60;;
59024;SDS011;44806;48.008;13.666;2024-03-02T14:11:55;25.95;;;12.15;;
59024;SDS011;44806;48.008;13.666;2024-03-02T14:14:22;24.35;;;11.70;;
59024;SDS011;44806;48.008;13.666;2024-03-02T14:16:51;25.45;;;12.10;;
59024;SDS011;44806;48.008;13.666;2024-03-02T14:19:18;26.67;;;12.43;;